VNKT/KTM METAR and TAF weather

Enter ICAO airport designator
Station Type Date Time Source
VNKT METAR 2021/07/30 06:20 UTC NOAA

VNKT 300620Z 26004KT 7000 FEW020 SCT030 BKN100 25/22 Q1009 NOSIG


Station Type Date Time Source
VNKT Decoded METAR 2021/07/30 06:20 UTC NOAA

Kathmandu Airport, Nepal (VNKT) 27-42N 085-22E 1337M
Jul 30, 2021 - 02:20 AM EDT / 2021.07.30 0620 UTC
Wind: from the W (260 degrees) at 5 MPH (4 KT):0
Visibility: 4 mile(s):0
Sky conditions: mostly cloudy
Temperature: 77 F (25 C)
Dew Point: 71 F (22 C)
Relative Humidity: 83%
Pressure (altimeter): 29.80 in. Hg (1009 hPa)
ob: VNKT 300620Z 26004KT 7000 FEW020 SCT030 BKN100 25/22 Q1009 NOSIG
cycle: 6

Station Type Date Time Source
VNKT TAF 2021/07/29 18:39 UTC NOAA

TAF TAF VNKT 291700Z 2918/3018 28003KT 8000 FEW0210 SCT030 BKN100
BECMG 3000/3002 09003KT 7000 FEW015 SCT030
BECMG 3004/3005 12003KT 7000 FEW015 SCT030 BKN100
BECMG 3007/3008 23005KT 8000 FEW015 SCT030 BKN100 PROB40 3007/3012 22008KT 5000 -TSRA/RA FEW025CB
BECMG 3014/3015 16005KT 7000 FEW010 SCT030 BRK100 PROB40 3015/3019 5000 -TSRA FEW025CB

Example: see airport list